Aihui, Heilongjiang

10:02 PM CST on October 21, 2014 (GMT +0800)
Ignatyevo | Change Station
CLOSE
Current Station
Airport
Location: Blagovescensk,
Elevation: 636 ft
Nearby Weather Stations

Elev 636 ft 50.43 °N, 127.41 °E | Updated 1 hour ago

Clear
Clear
21 °F
Feels Like 13 °F
N
7
Wind Variable Wind from SW

Today
High -- | Low -- °F
--% Chance of Precip.
Yesterday
High -- | Low -- °F
Precip. -- in
6:01 AM 4:27 PM
Waning Crescent, 5% visible
Pressure 30.09 in
Visibility -9999.0 miles
Clouds
Windchill 13 °F
Dew Point 0 °F
Humidity 39%
Rainfall 0.00 in
Snow Depth Not available.
UV Not available.
Pollen Not available.
Air Quality Not available.
Flu Activity Not available.
METAR UHBB 211300Z 22003MPS 180V260 CAVOK M06/M18 Q1019 NOSIG RMK QFE747/0996 36090060

More Conditions Fewer Conditions

Pressure 30.09 in
Visibility -9999.0 miles
Clouds
Windchill 13 °F
Dew Point 0 °F
Humidity 39%
Rainfall 0.00 in
Snow Depth Not available.
UV Not available.
Pollen Not available.
Air Quality Not available.
Flu Activity Not available.
METAR UHBB 211300Z 22003MPS 180V260 CAVOK M06/M18 Q1019 NOSIG RMK QFE747/0996 36090060

More Conditions Fewer Conditions

10-Day Weather Forecast

Almanac

Astronomy

Oct. 21, 2014 Rise Set
Actual Time 6:01 AM CST 4:27 PM CST
Civil Twilight 5:28 AM CST 5:00 PM CST
Nautical Twilight 4:50 AM CST 5:38 PM CST
Astronomical Twilight 4:12 AM CST 6:16 PM CST
Moon 2:55 AM CST 3:16 PM CST
Length of Visible Light 11h 32m
Length of Day
10h 26m
Tomorrow will be 3m 36s shorter.
Waning Crescent, 5% of the Moon is Illuminated
Today
Waning Crescent
Oct 23
New
Oct 30
First Quarter
Nov 6
Full
Nov 14
Last Quarter

Yesterday's Extremes

Country Highs Country Lows

Community

WunderPhotos

Upload Photos

1,763,666 photos uploaded!

Nearby

Snow Depth

Not available.

Earthquake Activity

City Distance Mag. Time & Date
No recent earthquake activity has been reported nearby.
Minimum magnitude displayed is 2.5.

Coastal Water Temperatures

Place Temperature
No Stations Reporting

Nearby Weather Stations